Labin HR Speed Test Log

Averages  Max Speed    
1 to 25 of 295** for City Labin HR
Time
  
  Speed   Provider Size    User ConnectID   TestID  
8/27/19 4:47:56 pm 3.31 Mbps 414 kB/sOptima 6.4 MB4981173987 ouz2aDPeX 
8/27/19 12:39:00 pm 356 kbps 45 kB/sOptima 480 kB4981173987 Yp18kGelR 
8/27/19 12:37:57 pm 4.3 Mbps 538 kB/sOptima 6.6 MB4981173987 w_7hTCMuQ 
8/6/19 8:24:46 am 435 kbps 54 kB/sOptima 616 kB4981174629 xX2csV4~_ 
8/6/19 8:24:26 am 12.09 Mbps 1.51 MB/sOptima 22.8 MB4981174629 Plk1ohUJ7 
7/10/19 7:33:31 am 1.83 Mbps 229 kB/sIskon 2.4 MB1294278837671 nBwauJiwc 
7/3/19 4:10:30 pm 6.17 Mbps 772 kB/sHrvatski 5.6 MB716197993 ntXYf8HIp 
7/3/19 4:10:15 pm 47.55 Mbps 5.94 MB/sHrvatski 43 MB716197993 YHdlsTe9b 
7/3/19 4:09:50 pm 5.6 Mbps 700 kB/sHrvatski 5.8 MB716197993 6gaTznTSR 
7/3/19 4:09:32 pm 44.85 Mbps 5.61 MB/sHrvatski 66.1 MB716197993 iIbWWW78l 
5/30/19 8:38:44 pm 4.06 Mbps 508 kB/sVipnet 2.5 MB8643421390279 ODMHhjxoe 
5/13/19 3:04:14 pm 16.1 Mbps 2.01 MB/sVipnet 15.5 MB10051194861 9w74O_J8P 
4/15/19 2:58:27 pm 73.66 Mbps 9.21 MB/sVipnet 100 MB42399226290 isOakS83k 
4/15/19 2:58:02 pm 74.21 Mbps 9.28 MB/sVipnet 100 MB42399226290 gSYT6XHsr 
4/15/19 2:57:45 pm 74.22 Mbps 9.28 MB/sVipnet 100 MB42399226290 0Nl10t-5~ 
4/15/19 2:52:12 pm 68.12 Mbps 8.51 MB/sVipnet 100 MB42399226932 os-187Nq4 
4/15/19 2:51:36 pm 72.73 Mbps 9.09 MB/sVipnet 35.4 MB42399226932 35R-R_Wm2 
4/15/19 2:49:30 pm 6.26 Mbps 783 kB/sVipnet 35.4 MB42399226932 dIuUQxl3I 
4/15/19 2:30:44 pm 14.16 Mbps 1.77 MB/sVipnet 35.4 MB42399226932 E6kVAKh7H 
4/15/19 2:29:56 pm 6.38 Mbps 797 kB/sVipnet 12 MB42399226932 ~lGe5HH81 
4/15/19 2:29:37 pm 51.18 Mbps 6.4 MB/sVipnet 12 MB42399226932 C9IdzC5Dx 
4/15/19 2:24:43 pm 6.66 Mbps 832 kB/sVipnet 7.1 MB42399226932 pzE6esKWp 
4/15/19 2:24:24 pm 4.68 Mbps 585 kB/sVipnet 2.4 MB42399226932 wV4bVP43x 
4/15/19 2:24:00 pm 8.01 Mbps 1 MB/sVipnet 100 MB42399226932 97BOyWzG7 
4/15/19 1:04:15 pm 55.3 Mbps 6.91 MB/sVipnet 37 MB42399226932 n~dsI5PRX 
  
** Partial Results: The most recent results have been displayed. Results over 50 Mbps are highlighted.
Calculated from graphed results above not entire query.
Displaying Internet Speed Test results for City Labin HR

Minimum

Min 1.83 Mbps : 0.36 Mbps

Average

Avg 16.76 Mbps : 31.07 Mbps

Maximum

Max 47.55 Mbps : 74.22 Mbps

Minimum

Min: 1.83 Mbps : 0.36 Mbps |

Average

Avg: 16.76 Mbps : 31.07 Mbps |

Maximum

Max: 47.55 Mbps : 74.22 Mbps